sensor_id;sensor_type;location;lat;lon;timestamp;P1;durP1;ratioP1;P2;durP2;ratioP2
51578;SDS011;47998;53.242;6.386;2022-09-20T00:00:39;10.38;;;1.10;;
51578;SDS011;47998;53.242;6.386;2022-09-20T00:03:06;12.75;;;1.50;;
51578;SDS011;47998;53.242;6.386;2022-09-20T00:05:33;7.72;;;1.13;;
51578;SDS011;47998;53.242;6.386;2022-09-20T00:08:01;8.73;;;1.13;;
51578;SDS011;47998;53.242;6.386;2022-09-20T00:10:27;9.98;;;1.10;;
51578;SDS011;47998;53.242;6.386;2022-09-20T00:12:55;9.35;;;1.40;;
51578;SDS011;47998;53.242;6.386;2022-09-20T00:15:21;8.32;;;1.00;;
51578;SDS011;47998;53.242;6.386;2022-09-20T00:17:47;12.00;;;1.38;;
51578;SDS011;47998;53.242;6.386;2022-09-20T00:20:12;6.88;;;1.25;;
51578;SDS011;47998;53.242;6.386;2022-09-20T00:22:38;10.27;;;1.38;;
51578;SDS011;47998;53.242;6.386;2022-09-20T00:25:04;5.10;;;1.17;;
51578;SDS011;47998;53.242;6.386;2022-09-20T00:27:30;7.25;;;1.30;;
51578;SDS011;47998;53.242;6.386;2022-09-20T00:29:55;8.85;;;1.27;;
51578;SDS011;47998;53.242;6.386;2022-09-20T00:32:22;7.95;;;1.05;;
51578;SDS011;47998;53.242;6.386;2022-09-20T00:34:48;10.52;;;1.40;;
51578;SDS011;47998;53.242;6.386;2022-09-20T00:40:09;7.88;;;1.08;;
51578;SDS011;47998;53.242;6.386;2022-09-20T00:42:39;8.35;;;1.33;;
51578;SDS011;47998;53.242;6.386;2022-09-20T00:45:06;10.95;;;1.50;;
51578;SDS011;47998;53.242;6.386;2022-09-20T00:47:44;6.45;;;1.60;;
51578;SDS011;47998;53.242;6.386;2022-09-20T00:52:42;11.30;;;1.35;;
51578;SDS011;47998;53.242;6.386;2022-09-20T00:55:10;9.32;;;1.33;;
51578;SDS011;47998;53.242;6.386;2022-09-20T00:57:36;9.38;;;1.55;;
51578;SDS011;47998;53.242;6.386;2022-09-20T01:00:05;7.65;;;1.30;;
51578;SDS011;47998;53.242;6.386;2022-09-20T01:02:33;8.05;;;2.10;;
51578;SDS011;47998;53.242;6.386;2022-09-20T01:05:03;13.43;;;2.10;;
51578;SDS011;47998;53.242;6.386;2022-09-20T01:07:29;8.65;;;1.63;;
51578;SDS011;47998;53.242;6.386;2022-09-20T01:09:55;13.40;;;2.58;;
51578;SDS011;47998;53.242;6.386;2022-09-20T01:12:24;7.63;;;1.52;;
51578;SDS011;47998;53.242;6.386;2022-09-20T01:14:53;9.68;;;2.15;;
51578;SDS011;47998;53.242;6.386;2022-09-20T01:17:21;8.93;;;1.73;;
51578;SDS011;47998;53.242;6.386;2022-09-20T01:22:46;12.60;;;1.48;;
51578;SDS011;47998;53.242;6.386;2022-09-20T01:25:40;7.93;;;1.70;;
51578;SDS011;47998;53.242;6.386;2022-09-20T01:28:22;11.75;;;1.60;;
51578;SDS011;47998;53.242;6.386;2022-09-20T01:33:35;5.97;;;1.35;;
51578;SDS011;47998;53.242;6.386;2022-09-20T01:36:13;11.95;;;1.95;;
51578;SDS011;47998;53.242;6.386;2022-09-20T01:42:10;7.82;;;1.30;;
51578;SDS011;47998;53.242;6.386;2022-09-20T01:47:04;13.32;;;1.50;;
51578;SDS011;47998;53.242;6.386;2022-09-20T01:50:06;11.60;;;1.55;;
51578;SDS011;47998;53.242;6.386;2022-09-20T02:00:57;25.98;;;4.00;;
51578;SDS011;47998;53.242;6.386;2022-09-20T02:26:40;7.13;;;1.48;;
51578;SDS011;47998;53.242;6.386;2022-09-20T02:32:09;8.43;;;1.35;;
51578;SDS011;47998;53.242;6.386;2022-09-20T02:35:04;10.48;;;2.20;;
51578;SDS011;47998;53.242;6.386;2022-09-20T02:43:11;8.82;;;1.73;;
51578;SDS011;47998;53.242;6.386;2022-09-20T02:45:47;11.45;;;2.08;;
51578;SDS011;47998;53.242;6.386;2022-09-20T02:48:37;13.70;;;2.42;;
51578;SDS011;47998;53.242;6.386;2022-09-20T02:54:52;8.93;;;2.35;;
51578;SDS011;47998;53.242;6.386;2022-09-20T02:59:28;6.97;;;1.48;;
51578;SDS011;47998;53.242;6.386;2022-09-20T03:16:56;11.55;;;2.58;;
51578;SDS011;47998;53.242;6.386;2022-09-20T03:27:31;11.98;;;2.03;;
51578;SDS011;47998;53.242;6.386;2022-09-20T03:35:57;10.70;;;2.13;;
51578;SDS011;47998;53.242;6.386;2022-09-20T03:46:26;5.53;;;1.80;;
51578;SDS011;47998;53.242;6.386;2022-09-20T03:57:45;7.15;;;1.17;;
51578;SDS011;47998;53.242;6.386;2022-09-20T04:03:09;13.90;;;1.63;;
51578;SDS011;47998;53.242;6.386;2022-09-20T04:20:48;11.23;;;2.58;;
51578;SDS011;47998;53.242;6.386;2022-09-20T04:23:48;9.27;;;1.35;;
51578;SDS011;47998;53.242;6.386;2022-09-20T04:26:29;9.45;;;1.80;;
51578;SDS011;47998;53.242;6.386;2022-09-20T04:31:40;10.02;;;1.98;;
51578;SDS011;47998;53.242;6.386;2022-09-20T04:34:22;12.90;;;1.73;;
51578;SDS011;47998;53.242;6.386;2022-09-20T04:37:21;9.07;;;1.45;;
51578;SDS011;47998;53.242;6.386;2022-09-20T04:51:23;7.05;;;1.30;;
51578;SDS011;47998;53.242;6.386;2022-09-20T04:54:15;7.38;;;1.23;;
51578;SDS011;47998;53.242;6.386;2022-09-20T04:57:10;13.45;;;1.95;;
51578;SDS011;47998;53.242;6.386;2022-09-20T05:00:07;8.95;;;1.20;;
51578;SDS011;47998;53.242;6.386;2022-09-20T05:19:24;7.72;;;1.75;;
51578;SDS011;47998;53.242;6.386;2022-09-20T05:28:11;10.68;;;1.45;;
51578;SDS011;47998;53.242;6.386;2022-09-20T05:34:13;11.20;;;1.75;;
51578;SDS011;47998;53.242;6.386;2022-09-20T05:36:56;5.55;;;1.52;;
51578;SDS011;47998;53.242;6.386;2022-09-20T05:39:40;9.45;;;1.70;;
51578;SDS011;47998;53.242;6.386;2022-09-20T05:42:14;6.07;;;1.70;;
51578;SDS011;47998;53.242;6.386;2022-09-20T05:45:15;7.18;;;1.55;;
51578;SDS011;47998;53.242;6.386;2022-09-20T05:48:07;4.82;;;1.20;;
51578;SDS011;47998;53.242;6.386;2022-09-20T05:53:43;6.40;;;1.70;;
51578;SDS011;47998;53.242;6.386;2022-09-20T06:06:46;9.10;;;2.20;;
51578;SDS011;47998;53.242;6.386;2022-09-20T06:15:21;11.10;;;1.60;;
51578;SDS011;47998;53.242;6.386;2022-09-20T06:20:50;8.02;;;1.70;;
51578;SDS011;47998;53.242;6.386;2022-09-20T06:23:28;5.05;;;1.65;;
51578;SDS011;47998;53.242;6.386;2022-09-20T06:25:56;5.35;;;1.60;;
51578;SDS011;47998;53.242;6.386;2022-09-20T06:28:30;9.57;;;1.70;;
51578;SDS011;47998;53.242;6.386;2022-09-20T06:30:59;8.15;;;1.55;;
51578;SDS011;47998;53.242;6.386;2022-09-20T06:33:26;7.60;;;1.50;;
51578;SDS011;47998;53.242;6.386;2022-09-20T06:41:20;8.02;;;1.25;;
51578;SDS011;47998;53.242;6.386;2022-09-20T06:43:59;6.65;;;1.38;;
51578;SDS011;47998;53.242;6.386;2022-09-20T06:48:52;7.22;;;1.30;;
51578;SDS011;47998;53.242;6.386;2022-09-20T06:51:19;11.90;;;1.30;;
51578;SDS011;47998;53.242;6.386;2022-09-20T06:53:46;4.13;;;1.10;;
51578;SDS011;47998;53.242;6.386;2022-09-20T06:56:14;5.05;;;1.17;;
51578;SDS011;47998;53.242;6.386;2022-09-20T06:58:45;5.45;;;1.13;;
51578;SDS011;47998;53.242;6.386;2022-09-20T07:01:11;4.82;;;1.35;;
51578;SDS011;47998;53.242;6.386;2022-09-20T07:03:38;3.47;;;1.00;;
51578;SDS011;47998;53.242;6.386;2022-09-20T07:06:04;7.57;;;1.70;;
51578;SDS011;47998;53.242;6.386;2022-09-20T07:08:31;5.50;;;1.13;;
51578;SDS011;47998;53.242;6.386;2022-09-20T07:11:01;6.97;;;1.95;;
51578;SDS011;47998;53.242;6.386;2022-09-20T07:13:33;7.47;;;1.30;;
51578;SDS011;47998;53.242;6.386;2022-09-20T07:16:07;8.15;;;1.17;;
51578;SDS011;47998;53.242;6.386;2022-09-20T07:18:36;8.90;;;1.25;;
51578;SDS011;47998;53.242;6.386;2022-09-20T07:21:03;5.53;;;1.15;;
51578;SDS011;47998;53.242;6.386;2022-09-20T07:23:30;4.30;;;1.50;;
51578;SDS011;47998;53.242;6.386;2022-09-20T07:25:56;10.15;;;1.45;;
51578;SDS011;47998;53.242;6.386;2022-09-20T07:28:23;8.30;;;1.33;;
51578;SDS011;47998;53.242;6.386;2022-09-20T07:30:49;10.07;;;1.20;;
51578;SDS011;47998;53.242;6.386;2022-09-20T07:33:16;7.68;;;1.83;;
51578;SDS011;47998;53.242;6.386;2022-09-20T07:35:45;6.68;;;1.08;;
51578;SDS011;47998;53.242;6.386;2022-09-20T07:38:12;6.03;;;0.85;;
51578;SDS011;47998;53.242;6.386;2022-09-20T07:40:39;5.78;;;0.98;;
51578;SDS011;47998;53.242;6.386;2022-09-20T07:43:05;8.90;;;1.00;;
51578;SDS011;47998;53.242;6.386;2022-09-20T07:45:32;5.03;;;0.80;;
51578;SDS011;47998;53.242;6.386;2022-09-20T07:47:59;4.60;;;0.70;;
51578;SDS011;47998;53.242;6.386;2022-09-20T07:50:29;7.80;;;0.70;;
51578;SDS011;47998;53.242;6.386;2022-09-20T07:52:56;6.57;;;1.27;;
51578;SDS011;47998;53.242;6.386;2022-09-20T07:55:22;5.13;;;0.50;;
51578;SDS011;47998;53.242;6.386;2022-09-20T07:57:48;7.53;;;1.02;;
51578;SDS011;47998;53.242;6.386;2022-09-20T08:00:15;4.38;;;0.73;;
51578;SDS011;47998;53.242;6.386;2022-09-20T08:02:41;6.28;;;0.65;;
51578;SDS011;47998;53.242;6.386;2022-09-20T08:05:09;9.07;;;0.95;;
51578;SDS011;47998;53.242;6.386;2022-09-20T08:07:35;6.20;;;0.80;;
51578;SDS011;47998;53.242;6.386;2022-09-20T08:10:01;7.15;;;0.98;;
51578;SDS011;47998;53.242;6.386;2022-09-20T08:12:27;7.63;;;1.48;;
51578;SDS011;47998;53.242;6.386;2022-09-20T08:14:53;7.75;;;1.27;;
51578;SDS011;47998;53.242;6.386;2022-09-20T08:17:19;6.15;;;0.93;;
51578;SDS011;47998;53.242;6.386;2022-09-20T08:19:45;9.70;;;0.95;;
51578;SDS011;47998;53.242;6.386;2022-09-20T08:22:11;6.57;;;0.88;;
51578;SDS011;47998;53.242;6.386;2022-09-20T08:24:38;5.72;;;0.70;;
51578;SDS011;47998;53.242;6.386;2022-09-20T08:27:03;7.18;;;1.23;;
51578;SDS011;47998;53.242;6.386;2022-09-20T08:29:29;5.03;;;0.85;;
51578;SDS011;47998;53.242;6.386;2022-09-20T08:31:55;7.43;;;0.70;;
51578;SDS011;47998;53.242;6.386;2022-09-20T08:34:24;6.75;;;1.77;;
51578;SDS011;47998;53.242;6.386;2022-09-20T08:36:49;6.80;;;1.00;;
51578;SDS011;47998;53.242;6.386;2022-09-20T08:39:20;6.93;;;1.15;;
51578;SDS011;47998;53.242;6.386;2022-09-20T08:42:33;5.15;;;0.73;;
51578;SDS011;47998;53.242;6.386;2022-09-20T08:44:50;3.83;;;0.65;;
51578;SDS011;47998;53.242;6.386;2022-09-20T08:47:26;4.57;;;0.60;;
51578;SDS011;47998;53.242;6.386;2022-09-20T08:49:55;4.15;;;0.90;;
51578;SDS011;47998;53.242;6.386;2022-09-20T08:52:32;6.22;;;0.70;;
51578;SDS011;47998;53.242;6.386;2022-09-20T08:55:01;4.35;;;0.60;;
51578;SDS011;47998;53.242;6.386;2022-09-20T08:57:31;5.00;;;0.90;;
51578;SDS011;47998;53.242;6.386;2022-09-20T09:00:01;5.28;;;0.65;;
51578;SDS011;47998;53.242;6.386;2022-09-20T09:02:30;3.65;;;0.65;;
51578;SDS011;47998;53.242;6.386;2022-09-20T09:04:56;2.70;;;0.63;;
51578;SDS011;47998;53.242;6.386;2022-09-20T09:07:22;6.18;;;1.05;;
51578;SDS011;47998;53.242;6.386;2022-09-20T09:09:51;8.30;;;1.17;;
51578;SDS011;47998;53.242;6.386;2022-09-20T09:12:23;4.38;;;1.05;;
51578;SDS011;47998;53.242;6.386;2022-09-20T09:14:52;6.40;;;1.20;;
51578;SDS011;47998;53.242;6.386;2022-09-20T09:17:29;7.43;;;0.90;;
51578;SDS011;47998;53.242;6.386;2022-09-20T09:22:38;5.13;;;0.52;;
51578;SDS011;47998;53.242;6.386;2022-09-20T09:36:05;4.07;;;0.50;;
51578;SDS011;47998;53.242;6.386;2022-09-20T09:38:38;5.53;;;0.47;;
51578;SDS011;47998;53.242;6.386;2022-09-20T09:41:17;3.83;;;0.77;;
51578;SDS011;47998;53.242;6.386;2022-09-20T09:44:06;3.22;;;0.57;;
51578;SDS011;47998;53.242;6.386;2022-09-20T09:46:40;4.53;;;0.47;;
51578;SDS011;47998;53.242;6.386;2022-09-20T09:54:38;7.15;;;1.48;;
51578;SDS011;47998;53.242;6.386;2022-09-20T09:57:34;3.22;;;0.68;;
51578;SDS011;47998;53.242;6.386;2022-09-20T10:00:14;3.60;;;0.43;;
51578;SDS011;47998;53.242;6.386;2022-09-20T10:18:48;6.78;;;1.00;;
51578;SDS011;47998;53.242;6.386;2022-09-20T10:23:57;6.35;;;0.90;;
51578;SDS011;47998;53.242;6.386;2022-09-20T10:37:16;4.18;;;0.98;;
51578;SDS011;47998;53.242;6.386;2022-09-20T10:53:24;8.20;;;1.02;;
51578;SDS011;47998;53.242;6.386;2022-09-20T11:04:31;6.95;;;0.90;;
51578;SDS011;47998;53.242;6.386;2022-09-20T11:10:21;5.32;;;0.60;;
51578;SDS011;47998;53.242;6.386;2022-09-20T11:12:54;5.40;;;0.80;;
51578;SDS011;47998;53.242;6.386;2022-09-20T11:15:30;7.20;;;0.95;;
51578;SDS011;47998;53.242;6.386;2022-09-20T11:20:41;4.40;;;1.02;;
51578;SDS011;47998;53.242;6.386;2022-09-20T11:23:21;7.93;;;0.63;;
51578;SDS011;47998;53.242;6.386;2022-09-20T11:25:52;2.38;;;0.52;;
51578;SDS011;47998;53.242;6.386;2022-09-20T11:28:26;4.47;;;0.80;;
51578;SDS011;47998;53.242;6.386;2022-09-20T11:33:41;4.60;;;0.50;;
51578;SDS011;47998;53.242;6.386;2022-09-20T11:39:24;3.17;;;0.40;;
51578;SDS011;47998;53.242;6.386;2022-09-20T11:42:22;3.67;;;0.50;;
51578;SDS011;47998;53.242;6.386;2022-09-20T11:44:51;5.35;;;0.60;;
51578;SDS011;47998;53.242;6.386;2022-09-20T11:47:21;4.70;;;0.50;;
51578;SDS011;47998;53.242;6.386;2022-09-20T11:53:05;8.00;;;0.73;;
51578;SDS011;47998;53.242;6.386;2022-09-20T11:55:34;3.13;;;0.40;;
51578;SDS011;47998;53.242;6.386;2022-09-20T11:58:11;2.50;;;0.50;;
51578;SDS011;47998;53.242;6.386;2022-09-20T12:00:45;2.85;;;0.82;;
51578;SDS011;47998;53.242;6.386;2022-09-20T12:06:06;2.13;;;0.60;;
51578;SDS011;47998;53.242;6.386;2022-09-20T12:09:28;3.10;;;0.75;;
51578;SDS011;47998;53.242;6.386;2022-09-20T12:11:56;4.03;;;0.57;;
51578;SDS011;47998;53.242;6.386;2022-09-20T12:14:29;4.78;;;0.77;;
51578;SDS011;47998;53.242;6.386;2022-09-20T12:24:24;6.45;;;1.27;;
51578;SDS011;47998;53.242;6.386;2022-09-20T12:26:53;3.88;;;0.55;;
51578;SDS011;47998;53.242;6.386;2022-09-20T12:31:54;3.33;;;0.30;;
51578;SDS011;47998;53.242;6.386;2022-09-20T12:42:05;4.97;;;0.52;;
51578;SDS011;47998;53.242;6.386;2022-09-20T12:44:57;3.70;;;0.60;;
51578;SDS011;47998;53.242;6.386;2022-09-20T12:47:31;5.45;;;0.63;;
51578;SDS011;47998;53.242;6.386;2022-09-20T12:50:03;5.30;;;0.38;;
51578;SDS011;47998;53.242;6.386;2022-09-20T12:52:56;4.97;;;1.10;;
51578;SDS011;47998;53.242;6.386;2022-09-20T12:57:57;8.00;;;1.00;;
51578;SDS011;47998;53.242;6.386;2022-09-20T13:00:28;4.75;;;0.70;;
51578;SDS011;47998;53.242;6.386;2022-09-20T13:05:40;6.75;;;0.88;;
51578;SDS011;47998;53.242;6.386;2022-09-20T13:08:28;4.50;;;0.93;;
51578;SDS011;47998;53.242;6.386;2022-09-20T13:10:59;8.60;;;0.90;;
51578;SDS011;47998;53.242;6.386;2022-09-20T13:13:47;4.00;;;0.80;;
51578;SDS011;47998;53.242;6.386;2022-09-20T13:19:33;5.38;;;1.00;;
51578;SDS011;47998;53.242;6.386;2022-09-20T13:24:18;2.63;;;0.80;;
51578;SDS011;47998;53.242;6.386;2022-09-20T13:26:45;4.47;;;0.73;;
51578;SDS011;47998;53.242;6.386;2022-09-20T13:29:21;5.88;;;0.80;;
51578;SDS011;47998;53.242;6.386;2022-09-20T13:35:05;2.85;;;0.70;;
51578;SDS011;47998;53.242;6.386;2022-09-20T13:37:38;5.50;;;0.70;;
51578;SDS011;47998;53.242;6.386;2022-09-20T13:40:33;6.72;;;0.60;;
51578;SDS011;47998;53.242;6.386;2022-09-20T13:43:15;4.40;;;0.68;;
51578;SDS011;47998;53.242;6.386;2022-09-20T13:45:50;3.95;;;0.60;;
51578;SDS011;47998;53.242;6.386;2022-09-20T13:48:28;5.35;;;0.80;;
51578;SDS011;47998;53.242;6.386;2022-09-20T13:50:55;6.85;;;0.93;;
51578;SDS011;47998;53.242;6.386;2022-09-20T13:53:22;4.53;;;0.80;;
51578;SDS011;47998;53.242;6.386;2022-09-20T13:55:49;3.85;;;0.50;;
51578;SDS011;47998;53.242;6.386;2022-09-20T13:58:17;4.65;;;0.60;;
51578;SDS011;47998;53.242;6.386;2022-09-20T14:00:46;2.72;;;0.60;;
51578;SDS011;47998;53.242;6.386;2022-09-20T14:03:23;5.38;;;0.77;;
51578;SDS011;47998;53.242;6.386;2022-09-20T14:05:52;4.25;;;1.10;;
51578;SDS011;47998;53.242;6.386;2022-09-20T14:08:26;6.85;;;0.80;;
51578;SDS011;47998;53.242;6.386;2022-09-20T14:11:02;5.53;;;0.68;;
51578;SDS011;47998;53.242;6.386;2022-09-20T14:13:34;8.57;;;0.80;;
51578;SDS011;47998;53.242;6.386;2022-09-20T14:16:02;6.38;;;0.75;;
51578;SDS011;47998;53.242;6.386;2022-09-20T14:18:29;5.95;;;0.57;;
51578;SDS011;47998;53.242;6.386;2022-09-20T14:20:55;5.15;;;0.70;;
51578;SDS011;47998;53.242;6.386;2022-09-20T14:23:25;5.03;;;1.05;;
51578;SDS011;47998;53.242;6.386;2022-09-20T14:28:40;6.90;;;0.90;;
51578;SDS011;47998;53.242;6.386;2022-09-20T14:31:13;5.68;;;0.93;;
51578;SDS011;47998;53.242;6.386;2022-09-20T14:33:53;6.72;;;0.88;;
51578;SDS011;47998;53.242;6.386;2022-09-20T14:36:23;5.93;;;0.75;;
51578;SDS011;47998;53.242;6.386;2022-09-20T14:38:52;4.72;;;0.70;;
51578;SDS011;47998;53.242;6.386;2022-09-20T14:41:27;4.68;;;0.73;;
51578;SDS011;47998;53.242;6.386;2022-09-20T14:43:57;5.85;;;0.63;;
51578;SDS011;47998;53.242;6.386;2022-09-20T14:46:31;3.70;;;0.60;;
51578;SDS011;47998;53.242;6.386;2022-09-20T14:51:53;3.25;;;0.60;;
51578;SDS011;47998;53.242;6.386;2022-09-20T14:57:56;4.45;;;0.80;;
51578;SDS011;47998;53.242;6.386;2022-09-20T15:00:23;3.95;;;0.60;;
51578;SDS011;47998;53.242;6.386;2022-09-20T15:02:49;4.55;;;1.08;;
51578;SDS011;47998;53.242;6.386;2022-09-20T15:05:25;6.47;;;0.60;;
51578;SDS011;47998;53.242;6.386;2022-09-20T15:07:55;11.30;;;0.85;;
51578;SDS011;47998;53.242;6.386;2022-09-20T15:10:22;8.73;;;0.93;;
51578;SDS011;47998;53.242;6.386;2022-09-20T15:12:48;7.57;;;0.65;;
51578;SDS011;47998;53.242;6.386;2022-09-20T15:15:15;4.20;;;0.30;;
51578;SDS011;47998;53.242;6.386;2022-09-20T15:17:43;4.15;;;0.60;;
51578;SDS011;47998;53.242;6.386;2022-09-20T15:20:17;3.78;;;0.63;;
51578;SDS011;47998;53.242;6.386;2022-09-20T15:22:46;3.83;;;0.50;;
51578;SDS011;47998;53.242;6.386;2022-09-20T15:25:14;3.17;;;0.60;;
51578;SDS011;47998;53.242;6.386;2022-09-20T15:27:42;3.20;;;0.47;;
51578;SDS011;47998;53.242;6.386;2022-09-20T15:30:11;4.82;;;0.70;;
51578;SDS011;47998;53.242;6.386;2022-09-20T15:32:39;2.80;;;0.70;;
51578;SDS011;47998;53.242;6.386;2022-09-20T15:35:05;4.57;;;0.60;;
51578;SDS011;47998;53.242;6.386;2022-09-20T15:37:31;4.45;;;0.70;;
51578;SDS011;47998;53.242;6.386;2022-09-20T15:39:57;7.45;;;0.60;;
51578;SDS011;47998;53.242;6.386;2022-09-20T15:42:23;5.80;;;0.52;;
51578;SDS011;47998;53.242;6.386;2022-09-20T15:44:48;5.43;;;0.75;;
51578;SDS011;47998;53.242;6.386;2022-09-20T15:47:17;3.85;;;0.50;;
51578;SDS011;47998;53.242;6.386;2022-09-20T15:49:47;5.40;;;0.63;;
51578;SDS011;47998;53.242;6.386;2022-09-20T15:52:14;4.25;;;0.65;;
51578;SDS011;47998;53.242;6.386;2022-09-20T15:54:40;4.90;;;0.73;;
51578;SDS011;47998;53.242;6.386;2022-09-20T15:57:07;4.53;;;0.50;;
51578;SDS011;47998;53.242;6.386;2022-09-20T15:59:33;6.82;;;1.50;;
51578;SDS011;47998;53.242;6.386;2022-09-20T16:01:59;6.95;;;0.60;;
51578;SDS011;47998;53.242;6.386;2022-09-20T16:04:25;5.10;;;0.52;;
51578;SDS011;47998;53.242;6.386;2022-09-20T16:06:54;4.85;;;1.33;;
51578;SDS011;47998;53.242;6.386;2022-09-20T16:09:19;6.07;;;0.98;;
51578;SDS011;47998;53.242;6.386;2022-09-20T16:11:45;4.45;;;0.47;;
51578;SDS011;47998;53.242;6.386;2022-09-20T16:14:12;4.53;;;0.73;;
51578;SDS011;47998;53.242;6.386;2022-09-20T16:16:38;5.63;;;0.75;;
51578;SDS011;47998;53.242;6.386;2022-09-20T16:19:03;4.97;;;0.63;;
51578;SDS011;47998;53.242;6.386;2022-09-20T16:21:41;2.47;;;0.60;;
51578;SDS011;47998;53.242;6.386;2022-09-20T16:24:11;7.35;;;1.08;;
51578;SDS011;47998;53.242;6.386;2022-09-20T16:26:37;5.43;;;0.60;;
51578;SDS011;47998;53.242;6.386;2022-09-20T16:29:03;6.30;;;0.85;;
51578;SDS011;47998;53.242;6.386;2022-09-20T16:34:01;4.90;;;0.60;;
51578;SDS011;47998;53.242;6.386;2022-09-20T16:36:28;4.50;;;0.55;;
51578;SDS011;47998;53.242;6.386;2022-09-20T16:38:54;8.10;;;0.77;;
51578;SDS011;47998;53.242;6.386;2022-09-20T16:41:21;8.65;;;0.85;;
51578;SDS011;47998;53.242;6.386;2022-09-20T16:43:48;5.45;;;0.75;;
51578;SDS011;47998;53.242;6.386;2022-09-20T16:46:15;6.18;;;0.70;;
51578;SDS011;47998;53.242;6.386;2022-09-20T16:48:43;5.00;;;0.75;;
51578;SDS011;47998;53.242;6.386;2022-09-20T16:51:10;5.50;;;0.60;;
51578;SDS011;47998;53.242;6.386;2022-09-20T16:53:36;8.95;;;1.08;;
51578;SDS011;47998;53.242;6.386;2022-09-20T16:56:02;7.35;;;1.33;;
51578;SDS011;47998;53.242;6.386;2022-09-20T16:58:30;7.47;;;1.23;;
51578;SDS011;47998;53.242;6.386;2022-09-20T17:01:05;6.00;;;0.63;;
51578;SDS011;47998;53.242;6.386;2022-09-20T17:03:32;2.55;;;0.50;;
51578;SDS011;47998;53.242;6.386;2022-09-20T17:06:04;6.95;;;1.77;;
51578;SDS011;47998;53.242;6.386;2022-09-20T17:08:33;7.28;;;1.10;;
51578;SDS011;47998;53.242;6.386;2022-09-20T17:13:32;5.10;;;0.90;;
51578;SDS011;47998;53.242;6.386;2022-09-20T17:16:03;4.30;;;0.75;;
51578;SDS011;47998;53.242;6.386;2022-09-20T17:18:31;3.90;;;0.55;;
51578;SDS011;47998;53.242;6.386;2022-09-20T17:21:03;7.10;;;0.63;;
51578;SDS011;47998;53.242;6.386;2022-09-20T17:23:30;5.72;;;0.75;;
51578;SDS011;47998;53.242;6.386;2022-09-20T17:26:04;4.78;;;0.82;;
51578;SDS011;47998;53.242;6.386;2022-09-20T17:28:33;7.75;;;0.88;;
51578;SDS011;47998;53.242;6.386;2022-09-20T17:31:04;6.93;;;1.20;;
51578;SDS011;47998;53.242;6.386;2022-09-20T17:33:32;4.00;;;0.57;;
51578;SDS011;47998;53.242;6.386;2022-09-20T17:35:58;6.07;;;1.08;;
51578;SDS011;47998;53.242;6.386;2022-09-20T17:38:29;10.20;;;1.45;;
51578;SDS011;47998;53.242;6.386;2022-09-20T17:40:57;9.32;;;2.15;;
51578;SDS011;47998;53.242;6.386;2022-09-20T17:43:25;9.93;;;1.10;;
51578;SDS011;47998;53.242;6.386;2022-09-20T17:45:53;6.05;;;0.93;;
51578;SDS011;47998;53.242;6.386;2022-09-20T17:48:19;8.90;;;1.00;;
51578;SDS011;47998;53.242;6.386;2022-09-20T17:50:54;6.13;;;0.88;;
51578;SDS011;47998;53.242;6.386;2022-09-20T17:53:20;6.05;;;0.88;;
51578;SDS011;47998;53.242;6.386;2022-09-20T17:55:55;7.15;;;0.70;;
51578;SDS011;47998;53.242;6.386;2022-09-20T17:58:21;8.20;;;1.50;;
51578;SDS011;47998;53.242;6.386;2022-09-20T18:00:48;9.25;;;0.98;;
51578;SDS011;47998;53.242;6.386;2022-09-20T18:03:14;7.47;;;0.80;;
51578;SDS011;47998;53.242;6.386;2022-09-20T18:05:41;4.43;;;0.93;;
51578;SDS011;47998;53.242;6.386;2022-09-20T18:08:07;10.07;;;1.38;;
51578;SDS011;47998;53.242;6.386;2022-09-20T18:10:33;7.10;;;0.65;;
51578;SDS011;47998;53.242;6.386;2022-09-20T18:12:59;5.28;;;0.70;;
51578;SDS011;47998;53.242;6.386;2022-09-20T18:15:25;10.65;;;1.35;;
51578;SDS011;47998;53.242;6.386;2022-09-20T18:17:51;8.20;;;2.20;;
51578;SDS011;47998;53.242;6.386;2022-09-20T18:20:18;6.75;;;0.95;;
51578;SDS011;47998;53.242;6.386;2022-09-20T18:22:47;5.10;;;1.08;;
51578;SDS011;47998;53.242;6.386;2022-09-20T18:25:12;10.77;;;1.13;;
51578;SDS011;47998;53.242;6.386;2022-09-20T18:27:38;6.53;;;1.30;;
51578;SDS011;47998;53.242;6.386;2022-09-20T18:30:04;5.32;;;1.33;;
51578;SDS011;47998;53.242;6.386;2022-09-20T18:32:31;10.27;;;1.60;;
51578;SDS011;47998;53.242;6.386;2022-09-20T18:34:56;11.95;;;2.13;;
51578;SDS011;47998;53.242;6.386;2022-09-20T18:37:22;10.85;;;2.13;;
51578;SDS011;47998;53.242;6.386;2022-09-20T18:39:47;7.60;;;1.60;;
51578;SDS011;47998;53.242;6.386;2022-09-20T18:42:14;6.53;;;2.05;;
51578;SDS011;47998;53.242;6.386;2022-09-20T18:44:40;10.77;;;2.33;;
51578;SDS011;47998;53.242;6.386;2022-09-20T18:47:08;12.00;;;2.08;;
51578;SDS011;47998;53.242;6.386;2022-09-20T18:49:34;11.23;;;2.35;;
51578;SDS011;47998;53.242;6.386;2022-09-20T18:52:00;11.52;;;1.92;;
51578;SDS011;47998;53.242;6.386;2022-09-20T18:54:27;8.65;;;2.10;;
51578;SDS011;47998;53.242;6.386;2022-09-20T18:56:57;10.73;;;2.67;;
51578;SDS011;47998;53.242;6.386;2022-09-20T18:59:24;8.90;;;3.05;;
51578;SDS011;47998;53.242;6.386;2022-09-20T19:05:16;10.40;;;2.08;;
51578;SDS011;47998;53.242;6.386;2022-09-20T19:10:41;7.68;;;2.80;;
51578;SDS011;47998;53.242;6.386;2022-09-20T19:24:36;6.40;;;1.98;;
51578;SDS011;47998;53.242;6.386;2022-09-20T19:27:20;5.20;;;2.72;;
51578;SDS011;47998;53.242;6.386;2022-09-20T19:29:47;5.13;;;2.40;;
51578;SDS011;47998;53.242;6.386;2022-09-20T19:32:15;3.53;;;2.10;;
51578;SDS011;47998;53.242;6.386;2022-09-20T19:34:45;10.73;;;2.75;;
51578;SDS011;47998;53.242;6.386;2022-09-20T19:37:18;5.55;;;2.78;;
51578;SDS011;47998;53.242;6.386;2022-09-20T19:48:45;6.72;;;2.80;;
51578;SDS011;47998;53.242;6.386;2022-09-20T19:51:21;31.85;;;4.22;;
51578;SDS011;47998;53.242;6.386;2022-09-20T19:53:47;150.13;;;5.50;;
51578;SDS011;47998;53.242;6.386;2022-09-20T19:56:23;5.35;;;2.33;;
51578;SDS011;47998;53.242;6.386;2022-09-20T19:58:52;8.60;;;3.58;;
51578;SDS011;47998;53.242;6.386;2022-09-20T20:01:20;12.13;;;6.13;;
51578;SDS011;47998;53.242;6.386;2022-09-20T20:03:47;9.68;;;4.97;;
51578;SDS011;47998;53.242;6.386;2022-09-20T20:09:07;23.52;;;8.82;;
51578;SDS011;47998;53.242;6.386;2022-09-20T20:19:53;24.48;;;8.93;;
51578;SDS011;47998;53.242;6.386;2022-09-20T20:25:24;26.35;;;14.07;;
51578;SDS011;47998;53.242;6.386;2022-09-20T20:27:59;27.25;;;13.77;;
51578;SDS011;47998;53.242;6.386;2022-09-20T20:30:25;24.10;;;15.00;;
51578;SDS011;47998;53.242;6.386;2022-09-20T20:32:54;25.55;;;14.70;;
51578;SDS011;47998;53.242;6.386;2022-09-20T20:35:23;27.67;;;14.95;;
51578;SDS011;47998;53.242;6.386;2022-09-20T20:37:50;25.00;;;16.00;;
51578;SDS011;47998;53.242;6.386;2022-09-20T20:40:16;29.52;;;14.80;;
51578;SDS011;47998;53.242;6.386;2022-09-20T20:42:42;20.17;;;12.88;;
51578;SDS011;47998;53.242;6.386;2022-09-20T20:45:08;28.13;;;14.30;;
51578;SDS011;47998;53.242;6.386;2022-09-20T20:47:34;26.30;;;14.40;;
51578;SDS011;47998;53.242;6.386;2022-09-20T20:50:00;21.92;;;13.07;;
51578;SDS011;47998;53.242;6.386;2022-09-20T20:52:26;20.80;;;12.68;;
51578;SDS011;47998;53.242;6.386;2022-09-20T20:54:51;22.60;;;12.07;;
51578;SDS011;47998;53.242;6.386;2022-09-20T20:57:17;28.33;;;12.30;;
51578;SDS011;47998;53.242;6.386;2022-09-20T20:59:43;19.40;;;10.55;;
51578;SDS011;47998;53.242;6.386;2022-09-20T21:02:09;18.13;;;9.18;;
51578;SDS011;47998;53.242;6.386;2022-09-20T21:04:35;14.13;;;7.07;;
51578;SDS011;47998;53.242;6.386;2022-09-20T21:07:04;12.55;;;5.60;;
51578;SDS011;47998;53.242;6.386;2022-09-20T21:09:29;10.63;;;4.70;;
51578;SDS011;47998;53.242;6.386;2022-09-20T21:11:56;11.68;;;4.72;;
51578;SDS011;47998;53.242;6.386;2022-09-20T21:14:21;11.02;;;5.18;;
51578;SDS011;47998;53.242;6.386;2022-09-20T21:16:49;11.18;;;5.85;;
51578;SDS011;47998;53.242;6.386;2022-09-20T21:19:15;13.38;;;7.05;;